• Join FlightAware (Why Join?)
  • Login
  • US Flag 
03:11PM EDT


 

Airport Tracker/Info


-or-


 

Live Flight TrackerFlight Track Log ✈ UAL5887 ✈ 07-Apr-2013 ✈ KORD - KBNA

Flight Track Log - Related Links

Times and Time Zones

All times are in EDT time to prevent confusion due to time zone crossing. See the UAL5887 flight status page for this flight to view local times or setup timezone preferences in your user account.

Time Position Orientation Groundspeed Altitude Reporting Facility
EDT Latitude Longitude Course Direction KTS MPH feet Rate Location/Type
10:34PM 41.9833 -87.8667 180° South 168 193 2,200  Level Chicago TRACON
10:35PM 41.9167 -87.8667 180° South 232 267 4,000 1,800 Climbing Chicago TRACON
10:36PM 41.8194 -87.9083 198° South 252 290 6,900 1,980 Climbing Chicago Center
10:37PM 41.7444 -87.9333 194° South 275 316 9,500 2,520 Climbing Chicago Center
10:38PM 41.6653 -87.9322 179° South 292 336 12,100 1,800 Climbing Chicago Center
10:39PM 41.5525 -87.9083 171° South 344 396 13,300 1,440 Climbing Chicago Center
10:40PM 41.4503 -87.8856 171° South 365 420 15,100 1,620 Climbing Chicago Center
10:41PM 41.3453 -87.8847 180° South 373 429 16,700 1,560 Climbing Chicago Center
10:42PM 41.2394 -87.8925 183° South 376 433 18,300 1,440 Climbing Chicago Center
10:43PM 41.1306 -87.8842 177° South 388 447 19,700 1,260 Climbing Chicago Center
10:44PM 41.0206 -87.8642 172° South 399 459 21,000 1,260 Climbing Chicago Center
10:46PM 40.9086 -87.8439 172° South 405 466 22,300 1,320 Climbing Chicago Center
10:47PM 40.7961 -87.8250 173° South 408 470 23,700 1,260 Climbing Chicago Center
10:48PM 40.6833 -87.8039 172° South 410 472 24,900 1,260 Climbing Chicago Center
10:49PM 40.5711 -87.7856 173° South 408 470 26,300 1,260 Climbing Chicago Center
10:50PM 40.4603 -87.7653 172° South 407 468 27,500 1,260 Climbing Chicago Center
10:50PM 40.3589 -87.7500 173° South 402 463 28,700 1,320 Climbing Indianapolis Center
10:51PM 40.2494 -87.7319 173° South 397 457 30,000 1,260 Climbing Indianapolis Center
10:52PM 40.1392 -87.7122 172° South 397 457 31,300 1,260 Climbing Indianapolis Center
10:53PM 40.0292 -87.6931 172° South 396 456 32,600 1,380 Climbing Indianapolis Center
10:55PM 39.9000 -87.6719 173° South 398 458 34,200 1,140 Climbing Indianapolis Center
10:56PM 39.7911 -87.6533 173° South 393 452 35,000 360 Climbing Indianapolis Center
10:57PM 39.6758 -87.6336 172° South 412 474 35,000  Level Indianapolis Center
10:58PM 39.5553 -87.6133 173° South 432 497 35,000  Level Indianapolis Center
10:59PM 39.4308 -87.5922 173° South 448 516 35,000  Level Indianapolis Center
11:00PM 39.3047 -87.5700 172° South 453 521 35,000  Level Indianapolis Center
11:01PM 39.1783 -87.5489 173° South 454 522 35,000  Level Indianapolis Center
11:02PM 39.0608 -87.5306 173° South 452 520 35,000  Level Indianapolis Center
11:03PM 38.9369 -87.5100 173° South 448 516 35,000 -300 Level Indianapolis Center
11:04PM 38.8133 -87.4900 173° South 446 513 34,500 -540 Descending Indianapolis Center
11:05PM 38.6894 -87.4692 173° South 448 516 34,000 -300 Descending Indianapolis Center
11:06PM 38.5681 -87.4492 173° South 442 509 34,000  Level Indianapolis Center
11:07PM 38.4481 -87.4303 173° South 438 504 34,000  Level Indianapolis Center
11:08PM 38.3272 -87.4108 173° South 438 504 34,000 -420 Level Indianapolis Center
11:09PM 38.2058 -87.3908 173° South 442 509 33,200 -1,200 Descending Indianapolis Center
11:10PM 38.0608 -87.3672 173° South 441 507 31,600 -1,500 Descending Indianapolis Center
11:11PM 37.9403 -87.3478 173° South 438 504 30,200 -1,440 Descending Indianapolis Center
11:12PM 37.8158 -87.3278 173° South 445 512 28,700 -1,500 Descending Indianapolis Center
11:13PM 37.6922 -87.3075 173° South 454 522 27,200 -1,620 Descending Indianapolis Center
11:14PM 37.5625 -87.2883 173° South 462 532 25,500 -1,740 Descending Indianapolis Center
11:14PM 37.5167 -87.2847 176° South 442 509 24,900 -1,680 Descending Memphis Center
11:15PM 37.3933 -87.2661 173° South 442 509 23,300 -1,620 Descending Memphis Center
11:15PM 37.3578 -87.2572 169° South 420 483 22,800 -1,800 Descending Memphis Center
11:16PM 37.2842 -87.2364 167° South 430 495 21,500 -2,220 Descending Memphis Center
11:17PM 37.2256 -87.2206 168° South 394 453 20,100 -2,820 Descending Memphis Center
11:17PM 37.1772 -87.2042 165° South 408 470 18,700 -3,120 Descending Memphis Center
11:18PM 37.1247 -87.1908 169° South 383 441 17,000 -9,720 Descending Memphis Center
11:18PM 37.0722 -87.1747 166° South 389 448 9,000 -3,480 Descending Memphis Center
11:19PM 37.0156 -87.1586 167° South 383 441 13,500 3,360 Climbing Memphis Center
11:19PM 36.9736 -87.1447 165° South 384 442 12,400 -1,920 Descending Memphis Center
11:20PM 36.9211 -87.1339 171° South 355 409 11,600 -1,440 Descending Memphis Center
11:20PM 36.8811 -87.1175 162° South 355 409 11,000 -720 Descending Memphis Center
11:21PM 36.8331 -87.1064 170° South 306 352 10,900 -240 Descending Memphis Center
11:21PM 36.8056 -87.0944 161° South 331 381 10,800 -1,020 Descending Memphis Center
11:22PM 36.7336 -87.0483 153° Southeast 296 341 9,500 -960 Descending Memphis Center
11:23PM 36.6656 -87.0072 154° Southeast 278 320 8,900 -660 Descending Memphis Center
11:24PM 36.6019 -86.9658 152° Southeast 260 299 8,200 -1,320 Descending Memphis Center
11:25PM 36.5386 -86.9297 155° Southeast 254 292 6,300 -1,620 Descending Memphis Center
11:26PM 36.4792 -86.8908 152° Southeast 249 287 5,000 -1,140 Descending Memphis Center
11:27PM 36.4275 -86.8389 141° Southeast 229 264 4,100 -540 Descending Memphis Center
11:28PM 36.3967 -86.7758 121° Southeast 215 247 4,000 -60 Descending Memphis Center
11:29PM 36.3633 -86.7103 122° Southeast 215 247 4,000  Level Memphis Center
11:30PM 36.3283 -86.6528 127° Southeast 221 254 4,000 -180 Level Memphis Center
11:31PM 36.2919 -86.6183 143° Southeast 195 224 3,700 -660 Descending Memphis Center
11:32PM 36.2486 -86.6358 198° South 149 171 2,700 -840 Descending Memphis Center
11:33PM 36.2114 -86.6478 195° South 149 171 2,100 -600 Descending Memphis Center
11:34PM 36.1786 -86.6619 199° South 130 150 1,500 -660 Descending Memphis Center
11:35PM 36.1456 -86.6739 196° South 125 144 800 -420 Descending Memphis Center
11:36PM 36.1086 -86.6908 200° South 125 144 700 -120 Descending Memphis Center
11:38PM 36.1167 -86.6667 90° East  Level FlightAware Approximate
11:45PM 36.1245 -86.6782 90° East  Level Estimated
11:46PM 36.1245 -86.6782 90° East  Level Estimated
11:47PM 36.1245 -86.6782 90° East  Level Estimated
11:48PM 36.1245 -86.6782 90° East  Level Estimated
11:49PM 36.1245 -86.6782 90° East  Level Estimated
11:50PM 36.1245 -86.6782 90° East  Level Estimated
11:51PM 36.1245 -86.6782 90° East  Level Estimated
11:52PM 36.1245 -86.6782 90° East  Level Estimated
11:53PM 36.1245 -86.6782 90° East  Level Estimated
11:54PM 36.1245 -86.6782 90° East  Level Estimated